Time;durP1;ratioP1;P1;durP2;ratioP2;P2;SDS_P1;SDS_P2;PMS_P1;PMS_P2;Temp;Humidity;BMP_temperature;BMP_pressure;BME280_temperature;BME280_humidity;BME280_pressure;Samples;Min_cycle;Max_cycle;Signal;HPM_P1;HPM_P2
2021/12/24 00:00:43;;;;;;;17.92;5.28;;;;;;;17.21;46.41;99505.47;4432206;32;20110;-70
2021/12/24 00:03:10;;;;;;;15.93;4.32;;;;;;;17.41;46.15;99517.38;4432387;32;20069;-69
2021/12/24 00:05:36;;;;;;;18.27;4.70;;;;;;;17.43;46.03;99514.81;4433984;32;20046;-70
2021/12/24 00:08:03;;;;;;;17.08;4.87;;;;;;;17.60;45.61;99504.25;4435122;32;20435;-69
2021/12/24 00:10:31;;;;;;;22.77;4.45;;;;;;;17.62;45.93;99509.41;4434733;32;20029;-69
2021/12/24 00:12:59;;;;;;;12.45;4.00;;;;;;;17.55;45.62;99505.00;4432656;32;20099;-69
2021/12/24 00:37:19;;;;;;;13.43;3.87;;;;;;;17.88;45.80;99501.38;4432809;32;20386;-69
2021/12/24 00:39:55;;;;;;;14.75;4.05;;;;;;;17.63;46.15;99502.44;4432501;32;20064;-69
2021/12/24 00:42:21;;;;;;;18.27;3.90;;;;;;;17.65;46.62;99494.91;4433852;32;20470;-69
2021/12/24 00:44:47;;;;;;;18.17;3.30;;;;;;;17.45;46.80;99500.09;4433413;32;20064;-69
2021/12/24 00:47:13;;;;;;;16.90;4.05;;;;;;;17.85;45.67;99497.50;4429375;32;20090;-70
2021/12/24 00:49:38;;;;;;;16.33;4.30;;;;;;;17.84;46.01;99498.03;4433916;32;20056;-69
2021/12/24 00:55:06;;;;;;;25.02;4.93;;;;;;;18.00;46.26;99494.38;4430102;32;20470;-70
2021/12/24 00:57:37;;;;;;;13.50;3.72;;;;;;;17.84;46.34;99498.81;4431981;32;20565;-69
2021/12/24 01:00:09;;;;;;;16.35;3.80;;;;;;;18.22;45.68;99499.28;4432331;32;20034;-69
2021/12/24 01:02:34;;;;;;;14.27;3.95;;;;;;;18.36;45.54;99509.59;4432862;32;20482;-70
2021/12/24 01:05:00;;;;;;;18.92;4.10;;;;;;;18.20;45.79;99502.66;4433185;32;20101;-69
2021/12/24 01:07:26;;;;;;;10.48;3.28;;;;;;;18.18;45.80;99493.84;4429668;32;20029;-69
2021/12/24 01:09:51;;;;;;;15.88;3.92;;;;;;;18.02;46.26;99496.72;4428306;32;20046;-69
2021/12/24 01:12:17;;;;;;;19.15;4.62;;;;;;;17.73;46.80;99498.03;4433327;32;20096;-69
2021/12/24 01:14:46;;;;;;;14.48;3.97;;;;;;;17.98;46.25;99510.44;4429808;32;20069;-69
2021/12/24 01:19:57;;;;;;;18.33;4.72;;;;;;;18.25;46.21;99506.78;3981242;32;15026232;-69
2021/12/24 01:25:21;;;;;;;14.95;3.70;;;;;;;17.97;46.84;99506.06;4437382;32;20041;-69
2021/12/24 01:39:10;;;;;;;;;;;;;;;17.69;47.50;99497.50;4436270;32;20033;-69
2021/12/24 01:44:27;;;;;;;16.70;4.20;;;;;;;17.67;47.95;99483.03;4436104;32;20073;-69
2021/12/24 01:46:56;;;;;;;24.90;5.07;;;;;;;17.70;47.70;99482.00;4434998;32;20103;-69
2021/12/24 01:49:22;;;;;;;19.48;5.03;;;;;;;18.00;47.34;99491.53;4436135;32;20067;-69
2021/12/24 01:51:47;;;;;;;18.85;4.90;;;;;;;17.67;47.92;99483.03;4432794;32;20077;-69
2021/12/24 01:54:13;;;;;;;23.95;4.82;;;;;;;17.63;47.85;99480.47;4432366;32;20442;-69
2021/12/24 01:56:39;;;;;;;17.15;5.35;;;;;;;17.50;48.45;99479.41;4434145;32;20036;-69
2021/12/24 01:59:05;;;;;;;23.12;5.50;;;;;;;17.47;48.57;99474.75;4435819;32;20120;-69
2021/12/24 02:01:30;;;;;;;19.60;5.40;;;;;;;17.36;48.95;99478.34;4433397;32;20045;-69
2021/12/24 02:03:56;;;;;;;17.15;5.35;;;;;;;17.45;48.74;99478.13;4436851;32;20540;-69
2021/12/24 02:06:22;;;;;;;23.48;5.55;;;;;;;17.38;48.83;99480.66;4433905;32;20095;-69
2021/12/24 02:08:47;;;;;;;16.08;5.32;;;;;;;17.35;48.52;99485.31;4430946;32;20037;-69
2021/12/24 02:11:13;;;;;;;23.17;6.28;;;;;;;17.40;48.73;99478.09;4437157;32;20170;-69
2021/12/24 02:13:39;;;;;;;15.40;5.05;;;;;;;17.46;48.80;99487.44;4428470;32;20375;-69
2021/12/24 02:16:16;;;;;;;16.30;6.03;;;;;;;17.48;48.29;99477.09;4436895;32;20025;-69
2021/12/24 02:29:53;;;;;;;18.15;5.10;;;;;;;17.48;48.16;99485.63;4431724;32;20144;-69
2021/12/24 02:32:19;;;;;;;18.60;4.70;;;;;;;17.50;48.05;99485.88;4434805;32;20042;-69
2021/12/24 02:34:45;;;;;;;15.77;5.53;;;;;;;17.44;48.03;99492.84;4435745;32;20033;-69
2021/12/24 02:37:11;;;;;;;14.27;5.22;;;;;;;17.45;48.04;99486.66;4434432;32;20147;-69
2021/12/24 02:39:37;;;;;;;15.48;4.80;;;;;;;17.20;48.60;99487.62;4434808;32;20076;-69
2021/12/24 02:44:50;;;;;;;20.88;4.70;;;;;;;17.65;47.63;99494.16;3981240;32;15023087;-69
2021/12/24 02:55:16;;;;;;;;;;;;;;;17.53;48.67;99478.38;4434448;32;20130;-69
2021/12/24 02:57:43;;;;;;;12.52;4.00;;;;;;;17.63;48.08;99477.59;4435504;32;19952;-69
2021/12/24 03:00:15;;;;;;;10.00;3.37;;;;;;;17.24;49.11;99476.75;4434796;32;20390;-69
2021/12/24 03:02:44;;;;;;;18.23;3.60;;;;;;;17.46;48.61;99476.81;4431373;32;20499;-69
2021/12/24 03:05:12;;;;;;;11.80;2.87;;;;;;;17.34;49.35;99475.22;4435688;32;20473;-69
2021/12/24 03:07:39;;;;;;;15.95;3.62;;;;;;;17.53;49.25;99476.31;4432955;32;20091;-69
2021/12/24 03:10:11;;;;;;;14.15;3.15;;;;;;;17.67;48.85;99483.81;4431973;32;20116;-69
2021/12/24 03:12:37;;;;;;;11.90;3.30;;;;;;;17.95;48.29;99477.34;4432937;32;20038;-69
2021/12/24 03:15:05;;;;;;;11.57;3.25;;;;;;;17.92;47.92;99487.69;4432355;32;20038;-69
2021/12/24 03:17:32;;;;;;;16.02;3.85;;;;;;;17.94;47.62;99493.62;4433527;32;20104;-69
2021/12/24 03:20:04;;;;;;;15.90;3.33;;;;;;;17.82;47.49;99489.22;4431264;32;20030;-69
2021/12/24 03:25:07;;;;;;;16.85;3.67;;;;;;;18.00;46.82;99490.75;3980867;31;15015609;-69
2021/12/24 03:27:33;;;;;;;12.43;3.62;;;;;;;18.00;46.82;99490.75;4443425;32;20065;-69
2021/12/24 03:29:59;;;;;;;13.50;3.50;;;;;;;17.44;47.56;99482.25;4441124;32;20427;-69
2021/12/24 03:32:25;;;;;;;15.80;3.78;;;;;;;17.31;47.96;99486.88;4444792;32;20487;-69
2021/12/24 03:34:51;;;;;;;17.90;4.28;;;;;;;17.43;47.92;99477.84;4443410;32;20096;-69
2021/12/24 03:37:17;;;;;;;16.42;4.30;;;;;;;17.43;47.83;99482.78;4444481;32;20143;-67
2021/12/24 03:39:44;;;;;;;16.80;4.07;;;;;;;17.37;47.59;99488.41;4442394;32;20041;-69
2021/12/24 03:42:10;;;;;;;14.80;3.60;;;;;;;17.28;47.91;99485.03;4443331;32;20025;-69
2021/12/24 03:44:43;;;;;;;18.33;3.67;;;;;;;17.26;47.92;99487.62;4444296;32;20502;-68
2021/12/24 03:47:13;;;;;;;15.63;3.95;;;;;;;17.38;48.02;99480.66;4442016;32;20478;-68
2021/12/24 03:49:54;;;;;;;11.63;3.87;;;;;;;17.37;48.16;99488.41;4439914;32;20103;-68
2021/12/24 03:54:57;;;;;;;18.20;3.58;;;;;;;17.66;48.04;99484.31;3951242;32;15766716;-69
2021/12/24 04:00:10;;;;;;;13.68;3.90;;;;;;;17.48;47.52;99485.63;3980987;32;15031292;-69
2021/12/24 04:02:36;;;;;;;18.67;3.80;;;;;;;17.49;47.68;99486.41;4428991;32;20459;-69
2021/12/24 04:05:02;;;;;;;20.88;4.20;;;;;;;17.01;48.50;99478.03;4433826;32;20142;-69
2021/12/24 04:07:28;;;;;;;10.13;3.53;;;;;;;16.93;48.64;99474.09;4433664;32;20449;-69
2021/12/24 04:10:02;;;;;;;16.25;4.37;;;;;;;16.89;48.42;99469.97;4434943;32;20541;-68
2021/12/24 04:12:28;;;;;;;13.15;3.33;;;;;;;16.87;48.60;99473.31;4435936;32;20541;-68
2021/12/24 04:14:54;;;;;;;10.68;3.35;;;;;;;16.90;48.57;99474.34;4433068;32;20096;-68
2021/12/24 04:17:21;;;;;;;16.12;4.43;;;;;;;16.36;49.88;99462.25;4430084;32;20277;-68
2021/12/24 04:25:18;;;;;;;11.88;4.20;;;;;;;16.24;50.95;99452.13;4432588;32;20109;-68
2021/12/24 04:27:44;;;;;;;15.32;4.60;;;;;;;16.03;51.31;99450.72;4434459;32;20037;-68
2021/12/24 04:30:15;;;;;;;16.17;5.00;;;;;;;15.83;52.50;99440.25;4436299;32;20095;-68
2021/12/24 04:51:50;;;;;;;20.65;6.45;;;;;;;15.94;51.54;99434.66;4431270;32;20134;-69
2021/12/24 05:08:14;;;;;;;14.90;5.57;;;;;;;16.63;50.20;99461.59;3980116;32;15021942;-69
2021/12/24 05:10:40;;;;;;;13.45;5.10;;;;;;;16.63;50.20;99461.59;4431585;32;20065;-69
2021/12/24 05:13:08;;;;;;;14.55;5.55;;;;;;;16.48;50.68;99463.09;4434756;32;20060;-69
2021/12/24 05:15:38;;;;;;;11.70;5.12;;;;;;;16.77;50.07;99459.84;4434215;32;20029;-69
2021/12/24 05:23:31;;;;;;;12.55;4.25;;;;;;;17.11;48.78;99485.00;4434000;32;20037;-69
2021/12/24 05:25:56;;;;;;;11.32;4.85;;;;;;;16.66;49.16;99479.72;4433713;32;20537;-69
2021/12/24 05:28:22;;;;;;;8.18;4.07;;;;;;;16.58;49.32;99472.94;4434773;32;20506;-69
2021/12/24 05:30:49;;;;;;;16.37;4.32;;;;;;;16.55;49.21;99474.75;4430612;32;20401;-69
2021/12/24 05:33:16;;;;;;;9.98;4.62;;;;;;;16.57;49.50;99472.16;4433381;32;20068;-69
2021/12/24 05:35:43;;;;;;;13.05;5.10;;;;;;;16.79;48.89;99475.13;4433753;32;20056;-69
2021/12/24 05:38:10;;;;;;;12.50;4.35;;;;;;;17.05;48.40;99474.91;4432910;32;20319;-69
2021/12/24 05:40:38;;;;;;;11.45;5.22;;;;;;;16.92;48.84;99480.31;4432838;32;20423;-69
2021/12/24 05:43:03;;;;;;;8.63;4.65;;;;;;;16.89;48.31;99478.50;4429051;32;20085;-69
2021/12/24 05:45:29;;;;;;;9.48;4.03;;;;;;;16.92;48.53;99478.25;4431531;32;20099;-69
2021/12/24 05:47:55;;;;;;;12.52;4.12;;;;;;;16.94;49.22;99475.66;4427646;32;20072;-69
2021/12/24 05:50:21;;;;;;;15.57;5.22;;;;;;;17.10;49.01;99483.47;4433798;32;20038;-69
2021/12/24 05:52:46;;;;;;;10.57;3.92;;;;;;;17.14;48.44;99481.16;4435791;32;20071;-69
2021/12/24 05:55:12;;;;;;;9.85;4.65;;;;;;;17.04;48.79;99473.38;4434970;32;20033;-69
2021/12/24 05:57:38;;;;;;;10.38;4.65;;;;;;;17.03;48.46;99469.72;4434576;32;20119;-69
2021/12/24 06:00:07;;;;;;;12.57;4.97;;;;;;;16.83;48.37;99466.31;4432155;32;20108;-69
2021/12/24 06:02:34;;;;;;;15.00;5.35;;;;;;;17.18;47.93;99475.97;4431796;32;20079;-69
2021/12/24 06:05:00;;;;;;;18.05;5.03;;;;;;;17.14;47.78;99483.19;4434800;32;20111;-69
2021/12/24 06:07:25;;;;;;;13.60;5.12;;;;;;;17.05;47.78;99477.75;4437580;32;20033;-69
2021/12/24 06:09:51;;;;;;;12.25;5.35;;;;;;;16.82;47.97;99476.94;4432516;32;20088;-69
2021/12/24 06:12:18;;;;;;;14.25;6.03;;;;;;;16.77;47.88;99480.53;4433090;32;20044;-69
2021/12/24 06:14:46;;;;;;;13.18;5.25;;;;;;;16.61;48.13;99486.12;4433452;32;20394;-69
2021/12/24 06:17:16;;;;;;;9.60;4.35;;;;;;;16.48;48.13;99480.13;4434921;32;20084;-69
2021/12/24 06:19:42;;;;;;;20.40;5.47;;;;;;;16.44;48.23;99486.06;4431419;32;20053;-69
2021/12/24 06:22:09;;;;;;;11.23;5.45;;;;;;;16.61;48.10;99495.44;4429101;32;20138;-69
2021/12/24 06:24:35;;;;;;;16.23;6.00;;;;;;;16.45;48.07;99496.16;4433624;32;20033;-69
2021/12/24 06:27:01;;;;;;;13.75;5.65;;;;;;;16.49;48.17;99498.72;4434714;32;20128;-69
2021/12/24 06:29:27;;;;;;;14.90;5.87;;;;;;;16.38;48.35;99490.91;4429182;32;20488;-69
2021/12/24 06:31:52;;;;;;;12.25;5.03;;;;;;;16.45;48.44;99495.34;4422859;32;20068;-69
2021/12/24 06:34:19;;;;;;;18.42;6.93;;;;;;;16.35;48.35;99494.75;4422240;32;20084;-69
2021/12/24 06:36:48;;;;;;;12.02;5.78;;;;;;;16.16;48.18;99487.16;4420707;32;20045;-69
2021/12/24 06:39:15;;;;;;;14.15;5.53;;;;;;;16.33;47.94;99479.50;4419062;32;20069;-69
2021/12/24 06:41:42;;;;;;;16.17;6.37;;;;;;;16.20;48.06;99468.59;4422030;32;20071;-69
2021/12/24 06:44:10;;;;;;;15.68;6.05;;;;;;;16.23;47.96;99473.25;4424375;32;20416;-69
2021/12/24 06:46:38;;;;;;;19.58;5.87;;;;;;;16.03;48.09;99467.72;4419701;32;20115;-69
2021/12/24 06:49:04;;;;;;;11.90;6.00;;;;;;;15.90;48.26;99459.63;4421890;32;20936;-69
2021/12/24 06:51:30;;;;;;;15.60;6.60;;;;;;;15.81;48.36;99461.91;4422440;32;20041;-69
2021/12/24 06:53:56;;;;;;;16.75;6.90;;;;;;;15.59;48.67;99465.34;4423379;32;20099;-69
2021/12/24 06:56:22;;;;;;;17.90;7.00;;;;;;;15.47;49.19;99472.19;4422425;32;20064;-69
2021/12/24 06:58:48;;;;;;;15.45;6.62;;;;;;;15.57;49.19;99469.97;4419507;32;20136;-69
2021/12/24 07:01:14;;;;;;;13.80;6.90;;;;;;;15.53;48.97;99469.44;4421318;32;20041;-69
2021/12/24 07:03:41;;;;;;;21.27;7.60;;;;;;;15.48;48.89;99468.09;4422662;32;20114;-69
2021/12/24 07:06:08;;;;;;;15.50;6.72;;;;;;;15.46;49.06;99470.66;4421233;32;20061;-69
2021/12/24 07:08:34;;;;;;;15.55;6.07;;;;;;;15.59;49.04;99470.25;4421915;32;20064;-69
2021/12/24 07:11:00;;;;;;;16.98;7.65;;;;;;;15.62;48.96;99461.50;4420126;32;20160;-69
2021/12/24 07:13:27;;;;;;;19.48;7.80;;;;;;;15.67;48.87;99466.44;4422233;32;20041;-69
2021/12/24 07:15:53;;;;;;;16.40;6.57;;;;;;;15.73;48.94;99464.44;4419259;32;20108;-69
2021/12/24 07:18:19;;;;;;;15.13;6.90;;;;;;;15.44;49.67;99463.94;4422669;32;20073;-69
2021/12/24 07:20:45;;;;;;;16.77;6.82;;;;;;;15.51;49.24;99463.47;4420310;32;20092;-69
2021/12/24 07:23:11;;;;;;;16.27;7.00;;;;;;;15.70;48.58;99471.12;4422585;32;20104;-69
2021/12/24 07:25:37;;;;;;;19.10;6.97;;;;;;;15.63;48.32;99473.63;4423125;32;20096;-69
2021/12/24 07:28:04;;;;;;;11.63;6.18;;;;;;;15.94;47.99;99468.72;4419759;32;20046;-69
2021/12/24 07:30:30;;;;;;;17.83;6.90;;;;;;;16.16;47.70;99468.06;4422426;32;20591;-69
2021/12/24 07:32:56;;;;;;;13.80;6.72;;;;;;;16.24;47.52;99471.22;4424745;32;20033;-69
2021/12/24 07:35:22;;;;;;;16.33;7.18;;;;;;;16.30;47.63;99466.34;4420411;32;20037;-69
2021/12/24 07:37:48;;;;;;;12.57;5.97;;;;;;;16.17;47.52;99475.28;4424873;32;20116;-69
2021/12/24 07:40:16;;;;;;;17.40;6.43;;;;;;;16.14;47.51;99467.78;4417394;32;20061;-69
2021/12/24 07:42:43;;;;;;;17.23;7.28;;;;;;;16.28;47.30;99472.53;4417161;32;20076;-69
2021/12/24 07:45:09;;;;;;;16.10;7.37;;;;;;;16.37;47.04;99471.53;4423721;32;20114;-69
2021/12/24 07:47:39;;;;;;;23.30;6.85;;;;;;;16.48;46.83;99475.25;4421700;32;20482;-69
2021/12/24 07:51:56;;;;;;;14.50;7.45;;;;;;;16.60;46.92;99476.06;4419919;32;20058;-69
2021/12/24 07:52:55;;;;;;;15.82;8.45;;;;;;;16.66;46.76;99491.06;4422077;32;20042;-69
2021/12/24 07:55:21;;;;;;;17.20;9.13;;;;;;;16.56;46.83;99484.03;4423624;32;20037;-69
2021/12/24 07:57:50;;;;;;;17.05;6.78;;;;;;;16.71;46.15;99481.78;4422268;32;20074;-69
2021/12/24 08:00:16;;;;;;;14.18;5.70;;;;;;;16.67;46.31;99489.78;4421007;32;20073;-69
2021/12/24 08:02:43;;;;;;;13.27;6.03;;;;;;;16.72;46.36;99486.19;4419031;32;20678;-69
2021/12/24 08:05:13;;;;;;;13.93;6.03;;;;;;;16.64;46.71;99483.06;4421994;32;20149;-69
2021/12/24 08:07:38;;;;;;;16.25;6.40;;;;;;;16.72;46.40;99483.34;4423341;32;20097;-69
2021/12/24 08:10:05;;;;;;;12.30;5.37;;;;;;;16.79;46.40;99483.63;4420270;32;20105;-69
2021/12/24 08:12:31;;;;;;;13.20;5.65;;;;;;;16.75;46.51;99488.78;4421063;32;20053;-69
2021/12/24 08:14:56;;;;;;;14.13;5.75;;;;;;;16.87;46.35;99483.91;4421323;32;20065;-69
2021/12/24 08:17:22;;;;;;;11.23;5.32;;;;;;;16.93;46.38;99484.69;4422843;32;20373;-69
2021/12/24 08:19:48;;;;;;;15.18;5.68;;;;;;;16.93;46.49;99484.69;4416557;32;20071;-69
2021/12/24 08:22:14;;;;;;;14.52;6.07;;;;;;;16.94;46.59;99478.50;4414189;32;20042;-69
2021/12/24 08:24:40;;;;;;;11.95;5.35;;;;;;;16.99;46.43;99483.44;4419941;32;20105;-69
2021/12/24 08:27:07;;;;;;;21.30;6.22;;;;;;;17.01;46.62;99489.38;4422150;32;20034;-69
2021/12/24 08:29:36;;;;;;;19.02;5.40;;;;;;;16.97;46.97;99496.59;4421260;32;20058;-69
2021/12/24 08:32:04;;;;;;;18.45;5.18;;;;;;;17.02;46.78;99490.16;4422691;32;20071;-69
2021/12/24 08:34:30;;;;;;;18.37;4.50;;;;;;;16.68;47.25;99497.00;4419305;32;20069;-69
2021/12/24 08:36:56;;;;;;;12.43;4.68;;;;;;;16.72;47.24;99483.34;4413771;32;20077;-69
2021/12/24 08:39:22;;;;;;;16.35;4.72;;;;;;;17.10;46.48;99494.84;4421678;32;20045;-69
2021/12/24 08:41:52;;;;;;;23.98;6.28;;;;;;;17.24;46.31;99490.19;4420142;32;20111;-69
2021/12/24 08:44:18;;;;;;;15.20;5.75;;;;;;;17.49;45.94;99486.41;4419670;32;20465;-69
2021/12/24 08:46:44;;;;;;;12.25;4.57;;;;;;;17.63;45.67;99486.16;4421901;32;20076;-69
2021/12/24 08:49:10;;;;;;;11.77;3.97;;;;;;;17.67;45.57;99483.81;4418691;32;20107;-69
2021/12/24 08:51:35;;;;;;;9.57;3.75;;;;;;;17.72;45.62;99479.41;4418261;32;20060;-69
2021/12/24 08:54:01;;;;;;;10.77;3.95;;;;;;;17.78;45.55;99483.81;4423073;32;20038;-69
2021/12/24 08:56:27;;;;;;;14.50;3.85;;;;;;;17.96;45.25;99482.50;4419430;32;20501;-69
2021/12/24 08:58:53;;;;;;;11.32;4.28;;;;;;;17.91;45.29;99476.81;4422607;32;20464;-69
2021/12/24 09:01:19;;;;;;;20.67;5.87;;;;;;;17.98;45.23;99476.28;4421525;32;20041;-69
2021/12/24 09:03:45;;;;;;;19.50;5.62;;;;;;;18.11;45.08;99482.22;4422713;32;20068;-69
2021/12/24 09:06:11;;;;;;;18.27;5.30;;;;;;;18.04;44.83;99472.12;4417208;32;20046;-69
2021/12/24 09:08:36;;;;;;;16.08;5.50;;;;;;;18.27;44.83;99467.94;4420452;32;20069;-69
2021/12/24 09:11:03;;;;;;;15.88;5.50;;;;;;;18.34;44.55;99469.47;4413677;32;20042;-69
2021/12/24 09:13:29;;;;;;;20.85;5.97;;;;;;;18.60;44.25;99481.34;4419364;32;20037;-69
2021/12/24 09:15:55;;;;;;;22.80;6.43;;;;;;;18.63;44.01;99486.00;4421373;32;20053;-68
2021/12/24 09:18:21;;;;;;;15.50;7.50;;;;;;;18.64;43.67;99491.16;4418060;32;20063;-68
2021/12/24 09:20:47;;;;;;;16.23;6.65;;;;;;;18.62;43.66;99482.34;4416874;32;20092;-68
2021/12/24 09:23:13;;;;;;;17.87;5.72;;;;;;;18.66;43.48;99493.50;4416638;32;20432;-70
2021/12/24 09:25:40;;;;;;;16.65;5.30;;;;;;;18.53;43.75;99493.28;4418134;32;20070;-69
2021/12/24 09:28:08;;;;;;;18.98;5.62;;;;;;;18.66;43.43;99496.34;4417588;32;20347;-69
2021/12/24 09:30:34;;;;;;;15.32;6.05;;;;;;;18.86;42.84;99496.75;4418579;32;20058;-69
2021/12/24 09:33:02;;;;;;;18.42;6.05;;;;;;;18.96;42.84;99492.31;4419579;32;20478;-69
2021/12/24 09:35:29;;;;;;;16.10;5.47;;;;;;;19.03;43.16;99496.69;4421160;32;20487;-69
2021/12/24 09:37:56;;;;;;;13.65;5.35;;;;;;;19.00;43.32;99512.00;4418387;32;20446;-69
2021/12/24 09:40:22;;;;;;;18.75;5.87;;;;;;;19.19;43.01;99502.31;4419377;32;20137;-69
2021/12/24 09:42:48;;;;;;;27.10;9.50;;;;;;;19.19;42.84;99504.38;4417390;32;20187;-69
2021/12/24 09:45:16;;;;;;;19.83;6.47;;;;;;;19.29;42.44;99509.25;4418872;32;20046;-69
2021/12/24 09:47:44;;;;;;;25.73;5.97;;;;;;;19.15;42.81;99507.50;4419161;32;20033;-69
2021/12/24 09:50:15;;;;;;;24.15;7.85;;;;;;;19.37;42.84;99513.13;4419545;32;20727;-69
2021/12/24 09:52:44;;;;;;;16.35;6.30;;;;;;;19.54;42.56;99515.84;4418773;32;20409;-69
2021/12/24 09:55:14;;;;;;;20.83;6.30;;;;;;;19.47;42.63;99511.47;4420665;32;20077;-69
2021/12/24 09:57:39;;;;;;;16.92;6.47;;;;;;;19.56;42.34;99516.09;4418418;32;20093;-69
2021/12/24 10:00:08;;;;;;;23.55;7.97;;;;;;;19.42;42.40;99515.13;4420701;32;20033;-69
2021/12/24 10:02:41;;;;;;;21.70;8.20;;;;;;;19.85;42.07;99518.19;4418218;32;20069;-69
2021/12/24 10:10:46;;;;;;;18.75;7.10;;;;;;;20.40;41.14;99531.97;3977180;32;15022073;-70
2021/12/24 10:13:32;;;;;;;17.92;6.25;;;;;;;20.40;41.14;99531.97;4430685;32;20176;-69
2021/12/24 10:26:42;;;;;;;31.87;10.35;;;;;;;20.50;41.06;99529.56;4002213;31;15015849;-69
2021/12/24 10:29:11;;;;;;;24.23;10.05;;;;;;;20.50;41.06;99529.56;4456730;32;20085;-69
2021/12/24 10:42:39;;;;;;;22.67;12.20;;;;;;;20.79;41.55;99523.75;3969877;32;15021652;-68
2021/12/24 10:45:10;;;;;;;25.62;11.75;;;;;;;20.79;41.55;99523.75;4422131;32;20425;-68
2021/12/24 10:47:40;;;;;;;26.98;12.48;;;;;;;20.39;41.95;99523.94;4421075;32;20159;-68
2021/12/24 10:50:30;;;;;;;23.95;11.25;;;;;;;20.49;41.88;99519.44;4421388;32;20033;-68
2021/12/24 10:55:53;;;;;;;18.35;9.60;;;;;;;20.91;41.53;99505.16;3926280;32;15024987;-69
2021/12/24 10:58:22;;;;;;;13.80;8.45;;;;;;;20.91;41.53;99505.16;4369054;32;20493;-69
2021/12/24 11:00:56;;;;;;;12.80;8.98;;;;;;;20.55;41.59;99503.75;4369525;32;20035;-69
2021/12/24 11:03:25;;;;;;;14.75;9.52;;;;;;;20.09;42.00;99503.97;4373338;32;20105;-69
2021/12/24 11:06:09;;;;;;;13.62;7.85;;;;;;;20.21;42.03;99499.72;4374914;32;20035;-69
2021/12/24 11:08:36;;;;;;;14.00;8.23;;;;;;;20.36;42.07;99505.00;4371607;32;20090;-69
2021/12/24 11:11:05;;;;;;;14.90;8.20;;;;;;;20.24;42.04;99495.00;4371249;32;20090;-69
2021/12/24 11:13:41;;;;;;;12.98;8.27;;;;;;;20.15;42.15;99495.38;4372632;32;20110;-69
2021/12/24 11:16:10;;;;;;;16.23;9.77;;;;;;;20.02;41.91;99493.13;4373782;32;20433;-70
2021/12/24 11:18:40;;;;;;;16.87;9.02;;;;;;;19.82;42.58;99501.38;4373553;32;20152;-69
2021/12/24 11:21:17;;;;;;;14.60;8.60;;;;;;;19.62;42.93;99513.97;4373882;32;20039;-68
2021/12/24 11:23:43;;;;;;;14.32;8.20;;;;;;;19.92;42.81;99514.78;4369473;32;20043;-70
2021/12/24 11:28:45;;;;;;;11.60;8.15;;;;;;;19.26;42.93;99515.22;3978450;32;15023627;-70
2021/12/24 11:31:15;;;;;;;13.60;7.60;;;;;;;19.20;44.36;99520.16;4431238;32;20034;-70
2021/12/24 11:33:44;;;;;;;13.05;7.20;;;;;;;18.71;44.93;99524.81;4429848;32;20478;-69
2021/12/24 11:36:13;;;;;;;11.27;7.22;;;;;;;19.30;44.12;99521.47;4428235;32;20113;-69
2021/12/24 11:38:44;;;;;;;12.93;7.50;;;;;;;19.48;43.48;99530.16;4432548;32;20371;-69
2021/12/24 11:41:13;;;;;;;13.10;7.32;;;;;;;19.48;43.18;99532.22;4427983;32;20059;-69
2021/12/24 11:43:42;;;;;;;15.98;7.78;;;;;;;19.20;43.88;99534.44;4426942;32;20164;-69
2021/12/24 11:46:15;;;;;;;14.98;8.35;;;;;;;19.15;44.32;99518.13;4429014;32;20104;-70
2021/12/24 11:48:42;;;;;;;17.65;8.48;;;;;;;19.37;43.90;99524.53;4427329;32;20108;-69
2021/12/24 11:51:13;;;;;;;15.93;9.50;;;;;;;19.03;44.06;99505.25;4428097;32;20084;-69
2021/12/24 11:53:40;;;;;;;15.90;9.40;;;;;;;19.23;44.31;99517.03;4432627;32;20100;-69
2021/12/24 11:56:12;;;;;;;20.37;11.05;;;;;;;19.16;44.28;99528.22;4429342;32;20121;-68
2021/12/24 11:58:49;;;;;;;16.08;9.27;;;;;;;19.49;43.83;99525.22;4428510;32;20136;-68
2021/12/24 12:01:17;;;;;;;16.40;9.68;;;;;;;19.43;43.96;99516.69;4426741;32;20069;-68
2021/12/24 12:03:46;;;;;;;21.73;11.60;;;;;;;19.22;44.48;99511.88;4430910;32;20124;-69
2021/12/24 12:06:34;;;;;;;20.50;11.43;;;;;;;19.32;44.14;99511.06;4427209;32;20062;-69
2021/12/24 12:09:03;;;;;;;21.15;11.40;;;;;;;19.55;43.55;99515.31;4427333;32;20037;-69
2021/12/24 12:11:31;;;;;;;20.27;11.95;;;;;;;19.40;43.96;99512.06;4427341;32;20181;-69
2021/12/24 12:14:01;;;;;;;18.65;10.65;;;;;;;19.53;44.03;99505.72;4427761;32;20033;-68
2021/12/24 12:16:49;;;;;;;17.27;10.07;;;;;;;19.37;43.81;99512.34;4430952;32;20440;-68
2021/12/24 12:24:57;;;;;;;21.75;12.95;;;;;;;20.00;43.31;99524.28;3977842;32;15024212;-69
2021/12/24 12:30:30;;;;;;;20.60;12.88;;;;;;;20.03;43.15;99520.37;3981357;32;15024248;-69
2021/12/24 12:44:02;;;;;;;20.85;12.32;;;;;;;19.94;43.97;99499.97;3970053;32;15021487;-70
2021/12/24 12:46:32;;;;;;;24.45;12.95;;;;;;;19.94;43.97;99499.97;4420200;32;20041;-70
2021/12/24 12:49:01;;;;;;;21.85;12.88;;;;;;;19.35;44.80;99509.22;4420900;32;20487;-69
2021/12/24 12:51:52;;;;;;;21.92;12.82;;;;;;;19.33;44.83;99506.91;4419879;32;20340;-69
2021/12/24 13:00:17;;;;;;;29.15;14.85;;;;;;;19.58;44.46;99502.06;3979146;32;15022326;-69
2021/12/24 13:08:21;;;;;;;30.33;16.20;;;;;;;19.47;45.51;99482.94;3994224;31;15038918;-69
2021/12/24 13:10:56;;;;;;;31.00;16.17;;;;;;;19.47;45.51;99482.94;4452491;32;20076;-69
2021/12/24 13:13:22;;;;;;;27.25;14.98;;;;;;;19.13;45.26;99486.50;4452079;32;20483;-68
2021/12/24 13:15:48;;;;;;;28.75;15.80;;;;;;;18.82;46.50;99473.47;4449640;32;20049;-68
2021/12/24 13:18:24;;;;;;;25.00;13.60;;;;;;;18.79;46.26;99487.97;4450832;32;20093;-68
2021/12/24 13:23:39;;;;;;;24.08;13.00;;;;;;;18.64;46.58;99485.47;4453593;32;20429;-68
2021/12/24 13:26:13;;;;;;;24.40;12.32;;;;;;;18.72;46.27;99491.37;4453292;32;20857;-68
2021/12/24 13:31:31;;;;;;;25.85;12.35;;;;;;;18.92;45.41;99471.84;3978601;32;15024232;-69
2021/12/24 13:33:57;;;;;;;24.00;12.07;;;;;;;18.92;45.41;99471.84;4428502;32;20386;-69
2021/12/24 13:36:26;;;;;;;26.12;12.82;;;;;;;18.44;46.26;99482.16;4428097;32;20151;-69
2021/12/24 13:38:52;;;;;;;26.55;12.85;;;;;;;18.40;46.37;99482.44;4430191;32;20068;-69
2021/12/24 13:41:18;;;;;;;25.40;11.32;;;;;;;18.32;46.77;99489.16;4430339;32;20076;-69
2021/12/24 13:43:44;;;;;;;25.27;13.25;;;;;;;18.24;46.93;99486.06;4429561;32;21536;-69
2021/12/24 13:46:11;;;;;;;23.77;11.45;;;;;;;18.22;46.72;99488.66;4430976;32;20060;-69
2021/12/24 13:48:51;;;;;;;25.65;11.85;;;;;;;18.47;46.58;99493.28;4430180;32;20050;-69
2021/12/24 13:54:34;;;;;;;27.20;11.98;;;;;;;18.19;46.69;99488.94;4432811;32;20029;-69
2021/12/24 13:56:49;;;;;;;23.67;11.68;;;;;;;18.13;47.10;99488.94;4432791;32;20436;-69
2021/12/24 13:59:24;;;;;;;25.80;12.35;;;;;;;17.94;47.80;99484.31;4428976;32;20072;-69
2021/12/24 14:01:52;;;;;;;22.15;11.68;;;;;;;18.19;47.08;99489.69;4428192;32;20038;-69
2021/12/24 14:04:21;;;;;;;25.50;12.77;;;;;;;18.17;47.59;99477.28;4428597;32;20041;-69
2021/12/24 14:06:51;;;;;;;22.27;10.75;;;;;;;18.17;47.53;99475.22;4428769;32;20041;-69
2021/12/24 14:09:21;;;;;;;23.52;11.38;;;;;;;18.03;47.60;99476.28;4428033;32;20152;-69
2021/12/24 14:11:50;;;;;;;23.12;11.10;;;;;;;18.03;47.65;99472.63;4429225;32;20077;-69
2021/12/24 14:14:24;;;;;;;25.17;12.32;;;;;;;18.12;47.55;99473.16;4427283;32;20222;-69
2021/12/24 14:19:44;;;;;;;24.98;11.18;;;;;;;18.30;47.02;99471.81;3979938;32;15023426;-69
2021/12/24 14:22:12;;;;;;;20.88;10.77;;;;;;;18.27;47.46;99470.00;4431317;32;20041;-69
2021/12/24 14:25:07;;;;;;;22.50;10.77;;;;;;;18.26;47.28;99482.72;4430408;32;20041;-69
2021/12/24 14:27:35;;;;;;;25.17;11.15;;;;;;;18.36;46.99;99470.50;4427946;32;20087;-69
2021/12/24 14:30:05;;;;;;;20.88;11.40;;;;;;;18.14;47.49;99469.78;4428193;32;20065;-69
2021/12/24 14:32:35;;;;;;;21.17;11.60;;;;;;;18.35;47.01;99474.63;4427773;32;20497;-69
2021/12/24 14:35:23;;;;;;;19.90;10.57;;;;;;;18.42;47.20;99476.22;4428780;32;20049;-69
2021/12/24 14:38:02;;;;;;;19.20;10.40;;;;;;;18.41;47.12;99474.69;4429313;32;20025;-69
2021/12/24 14:40:30;;;;;;;23.15;11.20;;;;;;;18.48;47.08;99474.13;4428833;32;20090;-69